sensor_id;sensor_type;location;lat;lon;timestamp;temperature;humidity
55673;DHT22;41554;45.366;20.400;2023-03-14T08:26:01;281.90;1945.60
55673;DHT22;41554;45.366;20.400;2023-03-14T08:28:26;281.70;1945.60
55673;DHT22;41554;45.366;20.400;2023-03-14T08:30:58;256.90;1894.40
55673;DHT22;41554;45.366;20.400;2023-03-14T08:33:24;281.70;1945.60
55673;DHT22;41554;45.366;20.400;2023-03-14T08:35:57;281.80;1945.60
55673;DHT22;41554;45.366;20.400;2023-03-14T08:38:23;281.90;1945.60
55673;DHT22;41554;45.366;20.400;2023-03-14T08:40:48;281.90;1945.60
55673;DHT22;41554;45.366;20.400;2023-03-14T08:43:15;282.20;1945.60
55673;DHT22;41554;45.366;20.400;2023-03-14T08:45:41;282.20;1920.00
55673;DHT22;41554;45.366;20.400;2023-03-14T08:48:06;282.40;1920.00
55673;DHT22;41554;45.366;20.400;2023-03-14T08:50:33;282.30;1894.40
55673;DHT22;41554;45.366;20.400;2023-03-14T08:52:58;282.50;2278.40
55673;DHT22;41554;45.366;20.400;2023-03-14T10:45:04;384.50;1433.60
55673;DHT22;41554;45.366;20.400;2023-03-14T10:47:32;384.60;1433.60
55673;DHT22;41554;45.366;20.400;2023-03-14T10:52:49;384.80;1408.00
55673;DHT22;41554;45.366;20.400;2023-03-14T10:55:16;384.70;1356.80
55673;DHT22;41554;45.366;20.400;2023-03-14T10:57:43;409.60;1408.00
55673;DHT22;41554;45.366;20.400;2023-03-14T12:42:15;461.30;1228.80
55673;DHT22;41554;45.366;20.400;2023-03-14T12:44:49;461.20;1254.40
55673;DHT22;41554;45.366;20.400;2023-03-14T12:49:44;461.40;1254.40
55673;DHT22;41554;45.366;20.400;2023-03-14T12:52:38;461.70;1280.00
55673;DHT22;41554;45.366;20.400;2023-03-14T12:55:08;461.50;1254.40
55673;DHT22;41554;45.366;20.400;2023-03-14T12:58:05;461.60;1254.40
55673;DHT22;41554;45.366;20.400;2023-03-14T13:00:34;461.00;1254.40
55673;DHT22;41554;45.366;20.400;2023-03-14T13:03:19;460.90;1280.00
55673;DHT22;41554;45.366;20.400;2023-03-14T13:06:01;460.80;1254.40
55673;DHT22;41554;45.366;20.400;2023-03-14T13:08:37;436.10;1228.80
55673;DHT22;41554;45.366;20.400;2023-03-14T13:11:13;436.10;1254.40
55673;DHT22;41554;45.366;20.400;2023-03-14T13:13:45;436.00;1280.00
55673;DHT22;41554;45.366;20.400;2023-03-14T13:16:18;435.90;1254.40
55673;DHT22;41554;45.366;20.400;2023-03-14T13:18:49;435.70;1280.00
55673;DHT22;41554;45.366;20.400;2023-03-14T13:21:25;435.70;1280.00
55673;DHT22;41554;45.366;20.400;2023-03-14T13:23:59;435.70;1280.00
55673;DHT22;41554;45.366;20.400;2023-03-14T13:26:37;435.70;1280.00
55673;DHT22;41554;45.366;20.400;2023-03-14T13:29:27;435.80;1305.60
55673;DHT22;41554;45.366;20.400;2023-03-14T13:32:13;435.80;1305.60
55673;DHT22;41554;45.366;20.400;2023-03-14T13:34:40;435.80;1305.60
55673;DHT22;41554;45.366;20.400;2023-03-14T13:37:16;435.80;1305.60
55673;DHT22;41554;45.366;20.400;2023-03-14T13:39:42;435.80;1280.00
55673;DHT22;41554;45.366;20.400;2023-03-14T13:42:15;435.80;1280.00
55673;DHT22;41554;45.366;20.400;2023-03-14T13:44:41;435.90;1305.60
55673;DHT22;41554;45.366;20.400;2023-03-14T13:47:17;436.10;1305.60
55673;DHT22;41554;45.366;20.400;2023-03-14T13:49:43;436.10;1280.00
55673;DHT22;41554;45.366;20.400;2023-03-14T13:52:30;460.80;1280.00
55673;DHT22;41554;45.366;20.400;2023-03-14T13:54:57;461.00;1280.00
55673;DHT22;41554;45.366;20.400;2023-03-14T13:57:24;460.90;1280.00
55673;DHT22;41554;45.366;20.400;2023-03-14T14:00:05;461.00;1254.40
55673;DHT22;41554;45.366;20.400;2023-03-14T14:02:33;461.10;1254.40
55673;DHT22;41554;45.366;20.400;2023-03-14T14:05:00;461.40;1254.40
55673;DHT22;41554;45.366;20.400;2023-03-14T14:07:26;461.60;1228.80
55673;DHT22;41554;45.366;20.400;2023-03-14T14:09:52;486.40;1280.00
55673;DHT22;41554;45.366;20.400;2023-03-14T14:12:41;486.40;1331.20
55673;DHT22;41554;45.366;20.400;2023-03-14T14:15:14;461.70;1408.00
55673;DHT22;41554;45.366;20.400;2023-03-14T14:17:45;461.50;1331.20
55673;DHT22;41554;45.366;20.400;2023-03-14T14:20:35;461.40;1331.20
55673;DHT22;41554;45.366;20.400;2023-03-14T14:23:05;486.40;1331.20
55673;DHT22;41554;45.366;20.400;2023-03-14T14:25:31;461.60;1331.20
55673;DHT22;41554;45.366;20.400;2023-03-14T14:27:57;461.50;1331.20
55673;DHT22;41554;45.366;20.400;2023-03-14T14:30:32;461.40;1331.20
55673;DHT22;41554;45.366;20.400;2023-03-14T14:33:18;461.60;1331.20
55673;DHT22;41554;45.366;20.400;2023-03-14T14:35:53;461.40;1331.20
55673;DHT22;41554;45.366;20.400;2023-03-14T14:38:19;461.40;1331.20
55673;DHT22;41554;45.366;20.400;2023-03-14T14:40:50;461.40;1331.20
55673;DHT22;41554;45.366;20.400;2023-03-14T14:43:23;461.30;1331.20
55673;DHT22;41554;45.366;20.400;2023-03-14T14:45:53;461.50;1356.80
55673;DHT22;41554;45.366;20.400;2023-03-14T14:48:24;461.60;1356.80
55673;DHT22;41554;45.366;20.400;2023-03-14T14:51:02;461.40;1356.80
55673;DHT22;41554;45.366;20.400;2023-03-14T14:53:39;461.40;1356.80
55673;DHT22;41554;45.366;20.400;2023-03-14T18:34:16;332.80;1766.40
55673;DHT22;41554;45.366;20.400;2023-03-14T18:36:42;308.10;1920.00
55673;DHT22;41554;45.366;20.400;2023-03-14T18:39:08;308.00;1740.80
55673;DHT22;41554;45.366;20.400;2023-03-14T18:41:35;308.00;1740.80
55673;DHT22;41554;45.366;20.400;2023-03-14T18:44:02;307.90;1766.40
55673;DHT22;41554;45.366;20.400;2023-03-14T18:46:28;307.80;1740.80
55673;DHT22;41554;45.366;20.400;2023-03-14T18:48:54;307.90;1766.40
55673;DHT22;41554;45.366;20.400;2023-03-14T18:51:28;307.90;1766.40
55673;DHT22;41554;45.366;20.400;2023-03-14T18:53:55;307.90;1766.40
55673;DHT22;41554;45.366;20.400;2023-03-14T18:56:23;307.80;1766.40
55673;DHT22;41554;45.366;20.400;2023-03-14T18:58:48;307.80;1766.40
55673;DHT22;41554;45.366;20.400;2023-03-14T19:01:14;307.80;1766.40
55673;DHT22;41554;45.366;20.400;2023-03-14T19:03:43;307.80;1766.40
55673;DHT22;41554;45.366;20.400;2023-03-14T19:06:09;307.70;1792.00
55673;DHT22;41554;45.366;20.400;2023-03-14T19:08:36;307.80;1792.00
55673;DHT22;41554;45.366;20.400;2023-03-14T19:11:04;307.70;1792.00
55673;DHT22;41554;45.366;20.400;2023-03-14T19:13:32;307.60;1817.60
55673;DHT22;41554;45.366;20.400;2023-03-14T19:15:58;307.70;1817.60
55673;DHT22;41554;45.366;20.400;2023-03-14T19:18:24;307.60;1817.60
55673;DHT22;41554;45.366;20.400;2023-03-14T19:20:58;307.60;1817.60
55673;DHT22;41554;45.366;20.400;2023-03-14T19:23:25;307.50;1817.60
55673;DHT22;41554;45.366;20.400;2023-03-14T19:25:52;307.50;1817.60
55673;DHT22;41554;45.366;20.400;2023-03-14T19:28:18;307.60;1817.60
55673;DHT22;41554;45.366;20.400;2023-03-14T19:30:43;307.60;1843.20
55673;DHT22;41554;45.366;20.400;2023-03-14T19:33:10;307.50;1843.20
55673;DHT22;41554;45.366;20.400;2023-03-14T19:35:36;307.60;1843.20
55673;DHT22;41554;45.366;20.400;2023-03-14T19:38:02;307.50;1843.20
55673;DHT22;41554;45.366;20.400;2023-03-14T19:40:28;307.60;1843.20
55673;DHT22;41554;45.366;20.400;2023-03-14T19:42:53;307.60;1843.20
55673;DHT22;41554;45.366;20.400;2023-03-14T19:45:19;307.70;1843.20
55673;DHT22;41554;45.366;20.400;2023-03-14T19:47:45;307.80;1843.20
55673;DHT22;41554;45.366;20.400;2023-03-14T19:50:11;307.80;1843.20
55673;DHT22;41554;45.366;20.400;2023-03-14T19:52:36;307.70;1868.80
55673;DHT22;41554;45.366;20.400;2023-03-14T19:55:04;307.70;1843.20
55673;DHT22;41554;45.366;20.400;2023-03-14T19:57:30;307.70;1868.80
55673;DHT22;41554;45.366;20.400;2023-03-14T19:59:55;307.70;1868.80
55673;DHT22;41554;45.366;20.400;2023-03-14T20:02:22;307.70;1868.80
55673;DHT22;41554;45.366;20.400;2023-03-14T20:04:48;307.60;1894.40
55673;DHT22;41554;45.366;20.400;2023-03-14T20:07:14;307.70;1894.40
55673;DHT22;41554;45.366;20.400;2023-03-14T20:09:40;307.60;1894.40
55673;DHT22;41554;45.366;20.400;2023-03-14T20:12:07;307.60;1894.40
55673;DHT22;41554;45.366;20.400;2023-03-14T20:14:33;307.60;1920.00
55673;DHT22;41554;45.366;20.400;2023-03-14T20:17:00;307.60;1920.00
55673;DHT22;41554;45.366;20.400;2023-03-14T20:19:26;307.60;1920.00
55673;DHT22;41554;45.366;20.400;2023-03-14T20:21:52;307.50;1945.60
55673;DHT22;41554;45.366;20.400;2023-03-14T20:24:18;307.50;1945.60
55673;DHT22;41554;45.366;20.400;2023-03-14T20:26:45;307.50;1971.20
55673;DHT22;41554;45.366;20.400;2023-03-14T20:29:10;307.40;1971.20
55673;DHT22;41554;45.366;20.400;2023-03-14T20:31:40;307.40;1971.20
55673;DHT22;41554;45.366;20.400;2023-03-14T20:34:06;307.40;1971.20
55673;DHT22;41554;45.366;20.400;2023-03-14T20:36:32;307.50;1971.20
55673;DHT22;41554;45.366;20.400;2023-03-14T20:38:59;307.50;1971.20
55673;DHT22;41554;45.366;20.400;2023-03-14T20:41:26;307.50;1996.80
55673;DHT22;41554;45.366;20.400;2023-03-14T20:43:52;307.50;1996.80
55673;DHT22;41554;45.366;20.400;2023-03-14T20:46:17;307.50;1996.80
55673;DHT22;41554;45.366;20.400;2023-03-14T20:48:43;307.50;1996.80
55673;DHT22;41554;45.366;20.400;2023-03-14T20:51:10;307.50;2022.40
55673;DHT22;41554;45.366;20.400;2023-03-14T20:53:37;307.40;2022.40
55673;DHT22;41554;45.366;20.400;2023-03-14T20:56:03;307.50;2022.40
55673;DHT22;41554;45.366;20.400;2023-03-14T20:58:29;307.40;2022.40
55673;DHT22;41554;45.366;20.400;2023-03-14T21:00:56;307.40;2022.40
55673;DHT22;41554;45.366;20.400;2023-03-14T21:03:22;307.50;2022.40
55673;DHT22;41554;45.366;20.400;2023-03-14T21:05:49;307.40;2022.40
55673;DHT22;41554;45.366;20.400;2023-03-14T21:08:19;307.40;2022.40
55673;DHT22;41554;45.366;20.400;2023-03-14T21:10:47;307.40;2022.40
